createdAt,value
2018-09-19T00:00:03.444Z,57.72
2018-09-19T00:02:31.528Z,57.41
2018-09-19T00:04:59.967Z,57.85
2018-09-19T00:07:28.062Z,57.87
2018-09-19T00:09:56.145Z,57.82
2018-09-19T00:12:24.274Z,58.35
2018-09-19T00:14:52.356Z,58.72
2018-09-19T00:17:20.456Z,58.56
2018-09-19T00:19:48.645Z,58.73
2018-09-19T00:22:16.726Z,58.82
2018-09-19T00:24:44.823Z,59.41
2018-09-19T00:27:12.883Z,59.60
2018-09-19T00:29:40.981Z,59.88
2018-09-19T00:32:09.083Z,59.91
2018-09-19T00:34:37.201Z,59.87
2018-09-19T00:37:05.299Z,60.00
2018-09-19T00:39:33.383Z,60.75
2018-09-19T00:42:01.477Z,60.24
2018-09-19T00:44:29.543Z,61.14
2018-09-19T00:46:57.671Z,60.95
2018-09-19T00:49:25.763Z,61.35
2018-09-19T00:51:53.856Z,61.18
2018-09-19T00:54:21.957Z,61.49
2018-09-19T00:56:50.044Z,61.36
2018-09-19T00:59:18.164Z,61.23
2018-09-19T01:01:46.240Z,62.00
2018-09-19T01:04:14.339Z,62.22
2018-09-19T01:06:42.420Z,62.65
2018-09-19T01:09:10.585Z,62.44
2018-09-19T01:11:39.041Z,62.09
2018-09-19T01:14:07.169Z,62.02
2018-09-19T01:16:35.244Z,62.27
2018-09-19T01:19:03.360Z,62.11
2018-09-19T01:21:31.456Z,62.62
2018-09-19T01:23:59.604Z,62.77
2018-09-19T01:26:27.708Z,62.80
2018-09-19T01:28:55.869Z,62.68
2018-09-19T01:31:23.948Z,63.37
2018-09-19T01:33:52.091Z,62.73
2018-09-19T01:36:20.150Z,63.36
2018-09-19T01:38:48.264Z,63.56
2018-09-19T01:41:16.340Z,63.41
2018-09-19T01:43:44.440Z,63.41
2018-09-19T01:46:12.511Z,63.13
2018-09-19T01:48:40.588Z,63.66
2018-09-19T01:51:08.715Z,63.94
2018-09-19T01:53:36.803Z,63.79
2018-09-19T01:56:04.895Z,63.44
2018-09-19T01:58:33.036Z,63.44
2018-09-19T02:01:01.125Z,63.57
2018-09-19T02:03:29.193Z,64.03
2018-09-19T02:05:57.275Z,64.16
2018-09-19T02:08:25.372Z,63.83
2018-09-19T02:10:53.517Z,63.75
2018-09-19T02:13:21.580Z,63.19
2018-09-19T02:15:49.734Z,64.69
2018-09-19T02:18:17.815Z,64.15
2018-09-19T02:20:45.916Z,64.49
2018-09-19T02:23:14.060Z,64.23
2018-09-19T02:25:42.197Z,64.52
2018-09-19T02:28:10.309Z,64.45
2018-09-19T02:30:38.384Z,64.25
2018-09-19T02:33:06.773Z,64.16
2018-09-19T02:35:34.860Z,64.15
2018-09-19T02:38:02.945Z,64.67
2018-09-19T02:40:31.003Z,64.57
2018-09-19T02:42:59.137Z,63.72
2018-09-19T02:45:27.220Z,63.75
2018-09-19T02:47:55.411Z,63.35
2018-09-19T02:50:23.528Z,63.17
2018-09-19T02:52:54.570Z,62.86
2018-09-19T02:55:23.502Z,62.67
2018-09-19T02:57:51.611Z,63.84
2018-09-19T03:00:19.706Z,62.98
2018-09-19T03:02:47.815Z,63.18
2018-09-19T03:05:15.928Z,63.17
2018-09-19T03:07:44.175Z,63.16
2018-09-19T03:10:12.271Z,63.13
2018-09-19T03:12:40.382Z,62.85
2018-09-19T03:15:08.795Z,63.38
2018-09-19T03:17:37.156Z,63.29
2018-09-19T03:20:05.037Z,63.23
2018-09-19T03:22:33.107Z,62.98
2018-09-19T03:25:01.186Z,63.12
2018-09-19T03:27:29.335Z,63.67
2018-09-19T03:29:57.407Z,63.09
2018-09-19T03:32:25.555Z,63.40
2018-09-19T03:34:53.653Z,63.78
2018-09-19T03:37:21.725Z,64.34
2018-09-19T03:39:49.815Z,63.41
2018-09-19T03:42:17.919Z,63.58
2018-09-19T03:44:46.006Z,63.89
2018-09-19T03:47:14.100Z,64.30
2018-09-19T03:49:42.211Z,64.14
2018-09-19T03:52:10.272Z,65.04
2018-09-19T03:54:38.352Z,64.34
2018-09-19T03:57:06.415Z,64.48
2018-09-19T03:59:34.500Z,64.82
2018-09-19T04:02:02.549Z,64.50
2018-09-19T04:04:30.614Z,64.86
2018-09-19T04:06:58.702Z,64.36
2018-09-19T04:09:26.803Z,64.82
2018-09-19T04:11:54.872Z,65.26
2018-09-19T04:14:22.982Z,64.53
2018-09-19T04:16:51.059Z,65.31
2018-09-19T04:19:19.158Z,64.99
2018-09-19T04:21:51.019Z,64.93
2018-09-19T04:24:19.121Z,65.02
2018-09-19T04:26:47.250Z,65.19
2018-09-19T04:29:15.531Z,65.06
2018-09-19T04:31:43.916Z,65.52
2018-09-19T04:34:12.043Z,65.45
2018-09-19T04:36:40.220Z,65.31
2018-09-19T04:39:09.765Z,65.42
2018-09-19T04:41:37.884Z,65.36
2018-09-19T04:44:06.932Z,65.51
2018-09-19T04:46:35.426Z,65.78
2018-09-19T04:49:03.527Z,66.16
2018-09-19T04:51:31.798Z,65.20
2018-09-19T04:53:59.848Z,65.77
2018-09-19T04:56:27.970Z,65.84
2018-09-19T04:58:56.099Z,66.28
2018-09-19T05:01:24.234Z,65.97
2018-09-19T05:03:52.302Z,65.58
2018-09-19T05:06:20.402Z,65.75
2018-09-19T05:08:48.914Z,66.28
2018-09-19T05:11:17.065Z,66.45
2018-09-19T05:13:45.151Z,66.31
2018-09-19T05:16:13.340Z,66.43
2018-09-19T05:18:41.450Z,66.41
2018-09-19T05:21:09.573Z,66.60
2018-09-19T05:23:37.693Z,66.03
2018-09-19T05:26:05.807Z,66.31
2018-09-19T05:28:33.915Z,66.13
2018-09-19T05:31:02.019Z,66.20
2018-09-19T05:33:30.107Z,65.88
2018-09-19T05:35:58.264Z,65.52
2018-09-19T05:38:26.393Z,65.48
2018-09-19T05:40:54.511Z,64.99
2018-09-19T05:43:23.008Z,64.46
2018-09-19T05:45:51.296Z,64.53
2018-09-19T05:48:19.384Z,63.78
2018-09-19T05:50:47.541Z,63.54
2018-09-19T05:53:15.631Z,63.62
2018-09-19T05:55:43.786Z,62.04
2018-09-19T05:58:11.882Z,61.19
2018-09-19T06:00:46.059Z,60.51
2018-09-19T06:03:14.145Z,60.55
2018-09-19T06:05:43.053Z,58.64
2018-09-19T06:08:11.140Z,58.68
2018-09-19T06:10:39.288Z,58.44
2018-09-19T06:13:07.377Z,58.57
2018-09-19T06:15:35.433Z,59.17
2018-09-19T06:18:03.509Z,59.51
2018-09-19T06:20:31.548Z,58.94
2018-09-19T06:22:59.636Z,59.00
2018-09-19T06:25:27.761Z,59.08
2018-09-19T06:27:55.884Z,58.28
2018-09-19T06:30:23.952Z,59.09
2018-09-19T06:32:52.152Z,59.11
2018-09-19T06:35:20.119Z,57.84
2018-09-19T06:37:48.231Z,56.48
2018-09-19T06:40:16.353Z,56.21
2018-09-19T06:42:44.385Z,54.63
2018-09-19T06:45:12.443Z,52.58
2018-09-19T06:47:40.497Z,52.67
2018-09-19T06:50:08.552Z,52.14
2018-09-19T06:52:36.680Z,50.91
2018-09-19T06:55:04.736Z,49.78
2018-09-19T06:57:32.796Z,48.33
2018-09-19T07:00:00.933Z,46.33
2018-09-19T07:02:29.005Z,46.17
2018-09-19T07:04:57.060Z,45.65
2018-09-19T07:07:25.145Z,44.29
2018-09-19T07:09:53.216Z,44.15
2018-09-19T07:12:21.336Z,44.05
2018-09-19T07:14:49.400Z,42.92
2018-09-19T07:17:17.450Z,42.64
2018-09-19T07:19:45.506Z,43.01
2018-09-19T07:22:13.577Z,41.91
2018-09-19T07:24:41.684Z,40.42
2018-09-19T07:27:09.732Z,40.78
2018-09-19T07:29:37.790Z,39.62
2018-09-19T07:32:05.863Z,39.59
2018-09-19T07:34:33.913Z,39.39
2018-09-19T07:37:02.013Z,39.38
2018-09-19T07:39:30.055Z,39.24
2018-09-19T07:41:58.164Z,38.67
2018-09-19T07:44:26.204Z,39.64
2018-09-19T07:46:54.268Z,39.81
2018-09-19T07:49:22.393Z,40.41
2018-09-19T07:51:50.461Z,40.32
2018-09-19T07:54:18.531Z,39.78
2018-09-19T07:56:46.591Z,39.38
2018-09-19T07:59:14.648Z,39.33
2018-09-19T08:01:42.716Z,39.51
2018-09-19T08:04:10.796Z,38.99
2018-09-19T08:06:39.092Z,39.49
2018-09-19T08:09:07.557Z,39.72
2018-09-19T08:11:35.644Z,40.25
2018-09-19T08:14:03.709Z,39.65
2018-09-19T08:16:31.784Z,40.27
2018-09-19T08:19:00.596Z,39.73
2018-09-19T08:21:28.653Z,39.97
2018-09-19T08:23:56.722Z,39.52
2018-09-19T08:26:24.792Z,39.58
2018-09-19T08:28:52.853Z,39.98
2018-09-19T08:31:20.907Z,39.04
2018-09-19T08:33:48.976Z,39.45
2018-09-19T08:36:17.035Z,39.45
2018-09-19T08:38:45.097Z,39.38
2018-09-19T08:41:13.154Z,40.18
2018-09-19T08:43:41.225Z,39.49
2018-09-19T08:46:09.276Z,39.99
2018-09-19T08:48:37.348Z,39.81
2018-09-19T08:51:05.568Z,39.53
2018-09-19T08:53:33.632Z,39.91
2018-09-19T08:56:01.698Z,39.81
2018-09-19T08:58:29.973Z,39.23
2018-09-19T09:00:58.020Z,39.41
2018-09-19T09:03:26.078Z,40.40
2018-09-19T09:05:54.145Z,39.82
2018-09-19T09:08:22.279Z,39.60
2018-09-19T09:10:50.281Z,39.84
2018-09-19T09:13:18.369Z,39.60
2018-09-19T09:15:46.420Z,38.25
2018-09-19T09:18:14.484Z,38.57
2018-09-19T09:20:42.537Z,39.04
2018-09-19T09:23:10.590Z,39.64
2018-09-19T09:25:38.645Z,39.26
2018-09-19T09:28:06.723Z,40.27
2018-09-19T09:30:34.817Z,40.91
2018-09-19T09:33:02.911Z,41.39
2018-09-19T09:35:30.995Z,41.53
2018-09-19T09:37:59.075Z,41.45
2018-09-19T09:40:27.204Z,41.51
2018-09-19T09:42:55.238Z,41.82
2018-09-19T09:45:23.305Z,42.66
2018-09-19T09:47:51.378Z,42.58
2018-09-19T09:50:19.533Z,43.15
2018-09-19T09:52:47.589Z,43.47
2018-09-19T09:55:15.737Z,43.74
2018-09-19T09:57:43.818Z,43.69
2018-09-19T10:00:11.946Z,44.25
2018-09-19T10:02:40.047Z,44.54
2018-09-19T10:05:08.138Z,44.80
2018-09-19T10:07:36.223Z,44.92
2018-09-19T10:10:04.325Z,45.00
2018-09-19T10:12:32.412Z,45.08
2018-09-19T10:15:00.488Z,45.09
2018-09-19T10:17:28.575Z,44.62
2018-09-19T10:19:56.698Z,44.91
2018-09-19T10:22:24.816Z,45.07
2018-09-19T10:24:56.881Z,45.35
2018-09-19T10:27:26.601Z,44.69
2018-09-19T10:29:54.694Z,44.74
2018-09-19T10:32:22.764Z,44.65
2018-09-19T10:34:50.819Z,44.83
2018-09-19T10:37:18.872Z,44.86
2018-09-19T10:39:46.985Z,45.04
2018-09-19T10:42:15.069Z,44.50
2018-09-19T10:44:43.183Z,44.91
2018-09-19T10:47:11.313Z,44.61
2018-09-19T10:49:39.445Z,44.49
2018-09-19T10:52:07.698Z,44.11
2018-09-19T10:54:35.853Z,43.33
2018-09-19T10:57:03.977Z,43.46
2018-09-19T10:59:31.975Z,43.48
2018-09-19T11:02:00.263Z,43.28
2018-09-19T11:04:28.343Z,43.46
2018-09-19T11:06:56.419Z,43.67
2018-09-19T11:09:24.526Z,43.15
2018-09-19T11:11:52.669Z,43.31
2018-09-19T11:14:20.744Z,42.85
2018-09-19T11:16:48.845Z,42.14
2018-09-19T11:19:16.893Z,42.05
2018-09-19T11:21:44.963Z,41.76
2018-09-19T11:24:13.503Z,42.52
2018-09-19T11:26:41.574Z,42.33
2018-09-19T11:29:09.744Z,42.83
2018-09-19T11:31:37.954Z,42.52
2018-09-19T11:34:06.124Z,42.29
2018-09-19T11:36:34.190Z,42.79
2018-09-19T11:39:02.229Z,42.63
2018-09-19T11:41:30.308Z,41.53
2018-09-19T11:43:58.361Z,40.70
2018-09-19T11:46:26.408Z,41.48
2018-09-19T11:48:54.489Z,40.48
2018-09-19T11:51:22.560Z,41.04
2018-09-19T11:53:50.920Z,41.35
2018-09-19T11:59:26.584Z,40.97
2018-09-19T12:01:54.720Z,40.78
2018-09-19T12:04:22.757Z,40.68
2018-09-19T12:07:25.556Z,41.11
2018-09-19T12:13:06.304Z,40.86
2018-09-19T12:15:34.935Z,40.45
2018-09-19T12:18:03.002Z,40.85
2018-09-19T12:20:31.182Z,40.55
2018-09-19T12:22:59.994Z,40.94
2018-09-19T12:25:28.324Z,40.61
2018-09-19T12:27:56.408Z,40.23
2018-09-19T12:30:24.576Z,40.22
2018-09-19T12:32:52.732Z,40.62
2018-09-19T12:35:20.789Z,40.64
2018-09-19T12:37:48.833Z,41.04
2018-09-19T12:40:16.900Z,41.37
2018-09-19T12:42:44.941Z,40.45
2018-09-19T12:45:12.971Z,40.41
2018-09-19T12:47:41.003Z,40.58
2018-09-19T12:50:09.041Z,40.24
2018-09-19T12:52:37.124Z,39.83
2018-09-19T12:55:05.331Z,40.53
2018-09-19T12:57:33.367Z,40.32
2018-09-19T13:00:01.634Z,39.52
2018-09-19T13:02:29.716Z,39.80
2018-09-19T13:04:57.772Z,38.98
2018-09-19T13:07:25.818Z,39.21
2018-09-19T13:09:53.844Z,39.16
2018-09-19T13:12:21.909Z,39.25
2018-09-19T13:14:50.056Z,40.22
2018-09-19T13:17:18.125Z,40.33
2018-09-19T13:19:46.266Z,40.42
2018-09-19T13:22:14.318Z,39.95
2018-09-19T13:24:42.394Z,39.99
2018-09-19T13:27:10.448Z,40.75
2018-09-19T13:29:38.510Z,40.65
2018-09-19T13:32:06.592Z,39.95
2018-09-19T13:34:34.692Z,39.77
2018-09-19T13:37:02.871Z,40.13
2018-09-19T13:39:30.937Z,39.25
2018-09-19T13:41:58.984Z,39.59
2018-09-19T13:44:27.061Z,38.79
2018-09-19T13:46:55.112Z,39.08
2018-09-19T13:49:26.588Z,39.46
2018-09-19T13:51:54.724Z,39.20
2018-09-19T13:54:22.771Z,39.07
2018-09-19T13:56:50.955Z,38.63
2018-09-19T13:59:18.988Z,39.39
2018-09-19T14:01:47.116Z,38.94
2018-09-19T14:04:15.275Z,38.22
2018-09-19T14:06:43.344Z,38.12
2018-09-19T14:09:11.407Z,37.77
2018-09-19T14:11:39.512Z,39.13
2018-09-19T14:14:07.521Z,38.69
2018-09-19T14:16:35.589Z,38.70
2018-09-19T14:19:03.664Z,39.19
2018-09-19T14:21:31.716Z,38.31
2018-09-19T14:23:59.813Z,38.98
2018-09-19T14:26:27.952Z,39.06
2018-09-19T14:28:56.051Z,39.35
2018-09-19T14:31:24.135Z,39.41
2018-09-19T14:33:52.303Z,39.39
2018-09-19T14:36:20.382Z,39.00
2018-09-19T14:38:48.427Z,39.46
2018-09-19T14:41:16.533Z,39.08
2018-09-19T14:43:44.609Z,39.46
2018-09-19T14:46:12.686Z,39.27
2018-09-19T14:48:40.861Z,38.80
2018-09-19T14:51:08.900Z,38.64
2018-09-19T14:53:37.016Z,38.72
2018-09-19T14:56:05.166Z,39.09
2018-09-19T14:58:33.282Z,39.21
2018-09-19T15:01:01.361Z,39.66
2018-09-19T15:03:29.462Z,39.43
2018-09-19T15:05:57.535Z,39.42
2018-09-19T15:08:25.635Z,39.45
2018-09-19T15:10:53.994Z,38.07
2018-09-19T15:13:22.048Z,38.53
2018-09-19T15:15:50.096Z,38.39
2018-09-19T15:18:18.284Z,38.03
2018-09-19T15:20:46.340Z,38.28
2018-09-19T15:23:14.392Z,37.94
2018-09-19T15:25:42.450Z,38.39
2018-09-19T15:28:10.527Z,38.29
2018-09-19T15:30:38.605Z,38.82
2018-09-19T15:33:09.724Z,38.92
2018-09-19T15:35:37.765Z,38.25
2018-09-19T15:38:06.048Z,38.72
2018-09-19T15:40:34.075Z,38.03
2018-09-19T15:43:02.137Z,38.86
2018-09-19T15:45:30.176Z,38.56
2018-09-19T15:47:58.252Z,38.12
2018-09-19T15:50:26.444Z,38.75
2018-09-19T15:52:54.472Z,39.27
2018-09-19T15:55:22.538Z,38.49
2018-09-19T15:57:50.630Z,38.73
2018-09-19T16:00:18.637Z,39.06
2018-09-19T16:02:46.685Z,39.29
2018-09-19T16:05:14.782Z,39.54
2018-09-19T16:07:42.831Z,38.88
2018-09-19T16:10:10.985Z,39.47
2018-09-19T16:12:39.020Z,39.65
2018-09-19T16:15:07.078Z,39.96
2018-09-19T16:17:35.148Z,39.60
2018-09-19T16:20:03.192Z,39.34
2018-09-19T16:22:31.232Z,39.07
2018-09-19T16:24:59.320Z,39.16
2018-09-19T16:27:27.408Z,39.43
2018-09-19T16:29:55.461Z,39.42
2018-09-19T16:32:23.537Z,39.26
2018-09-19T16:34:51.592Z,39.90
2018-09-19T16:37:19.632Z,39.44
2018-09-19T16:39:47.684Z,39.71
2018-09-19T16:42:15.720Z,40.11
2018-09-19T16:44:43.781Z,40.03
2018-09-19T16:47:11.826Z,40.13
2018-09-19T16:49:39.937Z,39.98
2018-09-19T16:52:07.991Z,40.24
2018-09-19T16:54:36.042Z,40.92
2018-09-19T16:57:04.133Z,40.84
2018-09-19T16:59:32.180Z,40.74
2018-09-19T17:02:00.244Z,41.47
2018-09-19T17:04:28.328Z,41.18
2018-09-19T17:06:56.394Z,41.64
2018-09-19T17:09:24.524Z,42.00
2018-09-19T17:11:52.580Z,41.62
2018-09-19T17:14:20.650Z,42.06
2018-09-19T17:16:48.709Z,42.12
2018-09-19T17:19:16.775Z,42.95
2018-09-19T17:21:44.817Z,42.83
2018-09-19T17:24:12.875Z,43.17
2018-09-19T17:26:41.069Z,43.54
2018-09-19T17:29:09.119Z,43.82
2018-09-19T17:31:37.197Z,43.45
2018-09-19T17:34:05.244Z,43.67
2018-09-19T17:36:33.312Z,44.17
2018-09-19T17:39:01.368Z,44.02
2018-09-19T17:41:29.424Z,44.17
2018-09-19T17:43:57.514Z,44.79
2018-09-19T17:46:25.559Z,44.86
2018-09-19T17:48:53.654Z,45.49
2018-09-19T17:51:21.708Z,45.91
2018-09-19T17:53:49.770Z,46.27
2018-09-19T17:56:17.841Z,45.40
2018-09-19T17:58:46.096Z,45.73
2018-09-19T18:01:14.751Z,46.11
2018-09-19T18:03:43.142Z,45.88
2018-09-19T18:06:11.304Z,46.23
2018-09-19T18:08:39.584Z,46.69
2018-09-19T18:11:07.715Z,45.95
2018-09-19T18:13:35.822Z,46.23
2018-09-19T18:16:03.932Z,46.58
2018-09-19T18:18:32.027Z,46.47
2018-09-19T18:21:00.169Z,46.78
2018-09-19T18:23:28.357Z,47.38
2018-09-19T18:25:56.491Z,46.98
2018-09-19T18:28:24.644Z,47.48
2018-09-19T18:30:52.838Z,47.10
2018-09-19T18:33:20.929Z,47.84
2018-09-19T18:35:49.018Z,47.52
2018-09-19T18:38:17.131Z,47.93
2018-09-19T18:40:45.270Z,47.20
2018-09-19T18:43:13.701Z,47.35
2018-09-19T18:45:41.834Z,47.22
2018-09-19T18:48:10.027Z,47.97
2018-09-19T18:50:39.876Z,47.89
2018-09-19T18:53:08.069Z,47.69
2018-09-19T18:55:36.269Z,48.27
2018-09-19T18:58:04.495Z,47.77
2018-09-19T19:00:32.584Z,47.53
2018-09-19T19:03:00.810Z,47.58
2018-09-19T19:05:28.891Z,48.15
2018-09-19T19:07:57.073Z,48.10
2018-09-19T19:10:25.157Z,47.60
2018-09-19T19:12:53.300Z,48.01
2018-09-19T19:15:21.511Z,47.75
2018-09-19T19:17:49.649Z,47.62
2018-09-19T19:20:17.721Z,48.54
2018-09-19T19:22:45.820Z,48.66
2018-09-19T19:25:13.897Z,48.80
2018-09-19T19:27:42.078Z,48.48
2018-09-19T19:30:10.270Z,48.24
2018-09-19T19:32:38.453Z,48.85
2018-09-19T19:35:06.557Z,48.66
2018-09-19T19:37:34.825Z,49.30
2018-09-19T19:40:02.887Z,49.11
2018-09-19T19:42:31.221Z,49.27
2018-09-19T19:44:59.298Z,49.01
2018-09-19T19:47:27.406Z,48.42
2018-09-19T19:49:55.954Z,48.26
2018-09-19T19:52:24.129Z,48.37
2018-09-19T19:54:52.316Z,47.60
2018-09-19T19:57:20.434Z,47.87
2018-09-19T19:59:48.497Z,47.89
2018-09-19T20:02:16.738Z,47.96
2018-09-19T20:04:45.153Z,47.63
2018-09-19T20:07:13.313Z,47.35
2018-09-19T20:09:41.454Z,47.90
2018-09-19T20:12:10.421Z,47.38
2018-09-19T20:14:39.184Z,47.94
2018-09-19T20:17:07.263Z,47.76
2018-09-19T20:19:35.499Z,48.24
2018-09-19T20:22:03.672Z,48.32
2018-09-19T20:24:31.877Z,47.95
2018-09-19T20:26:59.993Z,48.62
2018-09-19T20:29:28.180Z,48.19
2018-09-19T20:31:59.772Z,48.13
2018-09-19T20:34:27.971Z,48.71
2018-09-19T20:36:56.053Z,49.01
2018-09-19T20:39:24.204Z,48.65
2018-09-19T20:41:52.418Z,49.19
2018-09-19T20:44:21.647Z,49.19
2018-09-19T20:46:49.797Z,49.17
2018-09-19T20:49:17.857Z,49.92
2018-09-19T20:51:45.933Z,49.71
2018-09-19T20:54:14.203Z,49.42
2018-09-19T20:56:42.416Z,50.14
2018-09-19T20:59:10.542Z,50.22
2018-09-19T21:01:38.612Z,50.21
2018-09-19T21:04:06.817Z,50.42
2018-09-19T21:06:35.012Z,50.53
2018-09-19T21:09:03.656Z,50.36
2018-09-19T21:11:31.772Z,50.85
2018-09-19T21:14:03.546Z,51.06
2018-09-19T21:16:31.671Z,51.08
2018-09-19T21:18:59.799Z,51.08
2018-09-19T21:21:27.970Z,50.60
2018-09-19T21:23:56.084Z,51.34
2018-09-19T21:26:24.220Z,50.86
2018-09-19T21:28:52.343Z,51.23
2018-09-19T21:31:20.434Z,51.39
2018-09-19T21:33:48.555Z,51.52
2018-09-19T21:36:16.667Z,51.51
2018-09-19T21:38:44.770Z,51.54
2018-09-19T21:41:12.873Z,51.71
2018-09-19T21:43:40.961Z,51.74
2018-09-19T21:46:09.121Z,51.77
2018-09-19T21:48:37.283Z,52.42
2018-09-19T21:51:05.373Z,52.46
2018-09-19T21:53:33.443Z,52.30
2018-09-19T21:56:01.544Z,52.43
2018-09-19T21:58:29.669Z,52.95
2018-09-19T22:01:03.064Z,52.67
2018-09-19T22:03:31.142Z,52.50
2018-09-19T22:05:59.210Z,52.77
2018-09-19T22:08:27.389Z,53.24
2018-09-19T22:10:55.544Z,53.68
2018-09-19T22:13:23.645Z,53.64
2018-09-19T22:15:51.728Z,54.07
2018-09-19T22:18:19.822Z,54.23
2018-09-19T22:20:47.942Z,54.17
2018-09-19T22:23:16.042Z,54.60
2018-09-19T22:25:44.181Z,54.36
2018-09-19T22:28:12.312Z,53.82
2018-09-19T22:30:40.396Z,54.56
2018-09-19T22:33:08.699Z,54.25
2018-09-19T22:35:36.875Z,55.04
2018-09-19T22:38:04.954Z,54.73
2018-09-19T22:40:33.048Z,54.45
2018-09-19T22:43:01.192Z,55.17
2018-09-19T22:45:29.322Z,54.51
2018-09-19T22:47:57.457Z,54.87
2018-09-19T22:50:25.522Z,55.41
2018-09-19T22:52:53.592Z,55.13
2018-09-19T22:55:21.690Z,55.62
2018-09-19T22:57:49.795Z,55.66
2018-09-19T23:00:17.904Z,55.07
2018-09-19T23:02:45.989Z,55.61
2018-09-19T23:05:14.080Z,55.11
2018-09-19T23:07:42.186Z,55.19
2018-09-19T23:10:10.301Z,55.40
2018-09-19T23:12:38.381Z,55.38
2018-09-19T23:15:06.933Z,55.58
2018-09-19T23:17:35.040Z,55.24
2018-09-19T23:20:03.167Z,56.06
2018-09-19T23:22:31.328Z,55.40
2018-09-19T23:24:59.407Z,55.15
2018-09-19T23:29:54.642Z,55.99
2018-09-19T23:32:22.724Z,55.79
2018-09-19T23:34:50.809Z,55.62
2018-09-19T23:37:18.883Z,55.70
2018-09-19T23:39:46.992Z,55.63
2018-09-19T23:42:15.704Z,55.83
2018-09-19T23:44:44.392Z,55.56
2018-09-19T23:47:12.484Z,55.90
2018-09-19T23:49:40.543Z,55.97
2018-09-19T23:52:08.676Z,55.96
2018-09-19T23:54:36.819Z,56.58
2018-09-19T23:57:04.873Z,55.80
2018-09-19T23:59:32.976Z,55.98
